sensor_id;sensor_type;location;lat;lon;timestamp;pressure;altitude;pressure_sealevel;temperature;humidity
50650;BME280;36621;60.058;30.346;2023-04-10T00:00:11;102501.75;;;4.27;41.22
50650;BME280;36621;60.058;30.346;2023-04-10T00:07:43;102504.28;;;4.14;40.83
50650;BME280;36621;60.058;30.346;2023-04-10T00:15:16;102509.75;;;4.06;40.86
50650;BME280;36621;60.058;30.346;2023-04-10T00:22:48;102508.56;;;3.93;41.21
50650;BME280;36621;60.058;30.346;2023-04-10T00:30:21;102486.16;;;3.70;41.86
50650;BME280;36621;60.058;30.346;2023-04-10T00:37:53;102501.91;;;3.81;41.82
50650;BME280;36621;60.058;30.346;2023-04-10T00:45:27;102500.25;;;3.80;42.02
50650;BME280;36621;60.058;30.346;2023-04-10T00:52:59;102486.50;;;3.67;42.64
50650;BME280;36621;60.058;30.346;2023-04-10T01:00:32;102459.00;;;3.48;42.61
50650;BME280;36621;60.058;30.346;2023-04-10T01:08:11;102496.31;;;3.68;42.82
50650;BME280;36621;60.058;30.346;2023-04-10T01:15:53;102499.94;;;3.60;43.38
50650;BME280;36621;60.058;30.346;2023-04-10T01:24:02;102511.50;;;3.69;42.76
50650;BME280;36621;60.058;30.346;2023-04-10T01:31:43;102511.44;;;3.54;43.62
50650;BME280;36621;60.058;30.346;2023-04-10T01:39:19;102492.03;;;3.35;43.89
50650;BME280;36621;60.058;30.346;2023-04-10T01:46:53;102488.31;;;3.36;43.96
50650;BME280;36621;60.058;30.346;2023-04-10T01:54:27;102504.13;;;3.39;44.10
50650;BME280;36621;60.058;30.346;2023-04-10T02:02:02;102508.06;;;3.37;44.79
50650;BME280;36621;60.058;30.346;2023-04-10T02:09:41;102475.31;;;3.17;44.50
50650;BME280;36621;60.058;30.346;2023-04-10T02:17:21;102495.41;;;3.14;44.92
50650;BME280;36621;60.058;30.346;2023-04-10T02:24:56;102496.31;;;3.06;45.54
50650;BME280;36621;60.058;30.346;2023-04-10T02:32:30;102463.25;;;2.81;46.01
50650;BME280;36621;60.058;30.346;2023-04-10T02:40:03;102464.56;;;2.85;46.22
50650;BME280;36621;60.058;30.346;2023-04-10T02:47:46;102456.09;;;2.65;46.95
50650;BME280;36621;60.058;30.346;2023-04-10T02:55:23;102498.31;;;2.81;47.03
50650;BME280;36621;60.058;30.346;2023-04-10T03:02:56;102473.06;;;2.74;47.33
50650;BME280;36621;60.058;30.346;2023-04-10T03:10:31;102503.94;;;2.94;47.62
50650;BME280;36621;60.058;30.346;2023-04-10T03:18:04;102449.19;;;2.63;47.44
50650;BME280;36621;60.058;30.346;2023-04-10T03:25:39;102433.34;;;3.29;46.09
50650;BME280;36621;60.058;30.346;2023-04-10T03:33:16;102513.47;;;3.75;45.94
50650;BME280;36621;60.058;30.346;2023-04-10T03:40:48;102459.94;;;3.17;46.89
50650;BME280;36621;60.058;30.346;2023-04-10T03:48:26;102420.34;;;3.33;46.46
50650;BME280;36621;60.058;30.346;2023-04-10T03:56:03;102506.94;;;3.84;46.49
50650;BME280;36621;60.058;30.346;2023-04-10T04:03:36;102504.44;;;3.82;47.02
50650;BME280;36621;60.058;30.346;2023-04-10T04:11:28;102490.84;;;4.87;44.87
50650;BME280;36621;60.058;30.346;2023-04-10T04:19:09;102482.69;;;7.79;38.55
50650;BME280;36621;60.058;30.346;2023-04-10T04:26:51;102474.03;;;9.38;35.06
50650;BME280;36621;60.058;30.346;2023-04-10T04:34:42;102493.03;;;11.00;32.25
50650;BME280;36621;60.058;30.346;2023-04-10T04:42:37;102437.63;;;11.82;30.08
50650;BME280;36621;60.058;30.346;2023-04-10T04:50:40;102515.16;;;13.33;28.93
50650;BME280;36621;60.058;30.346;2023-04-10T04:58:38;102518.44;;;14.42;27.85
50650;BME280;36621;60.058;30.346;2023-04-10T05:06:36;102513.13;;;15.02;25.79
50650;BME280;36621;60.058;30.346;2023-04-10T05:14:27;102510.22;;;15.46;25.53
50650;BME280;36621;60.058;30.346;2023-04-10T05:22:11;102497.69;;;16.62;24.21
50650;BME280;36621;60.058;30.346;2023-04-10T05:29:58;102503.63;;;17.07;23.34
50650;BME280;36621;60.058;30.346;2023-04-10T05:38:08;102484.13;;;14.89;26.27
50650;BME280;36621;60.058;30.346;2023-04-10T14:40:01;102159.00;;;13.69;28.05
50650;BME280;36621;60.058;30.346;2023-04-10T14:47:37;102220.13;;;13.92;28.35
50650;BME280;36621;60.058;30.346;2023-04-10T14:55:10;102185.66;;;13.74;28.42
50650;BME280;36621;60.058;30.346;2023-04-10T15:02:42;102207.16;;;13.82;29.30
50650;BME280;36621;60.058;30.346;2023-04-10T15:10:16;102208.38;;;13.69;29.48
50650;BME280;36621;60.058;30.346;2023-04-10T15:17:48;102210.84;;;13.44;29.16
50650;BME280;36621;60.058;30.346;2023-04-10T15:25:21;102199.88;;;13.27;30.31
50650;BME280;36621;60.058;30.346;2023-04-10T15:32:53;102186.47;;;13.08;30.77
50650;BME280;36621;60.058;30.346;2023-04-10T15:40:27;102144.53;;;12.85;31.01
50650;BME280;36621;60.058;30.346;2023-04-10T15:47:59;102167.94;;;12.93;30.53
50650;BME280;36621;60.058;30.346;2023-04-10T15:55:38;102156.63;;;12.90;30.64
50650;BME280;36621;60.058;30.346;2023-04-10T16:03:10;102154.44;;;12.69;29.59
50650;BME280;36621;60.058;30.346;2023-04-10T16:10:42;102161.38;;;12.55;28.85
50650;BME280;36621;60.058;30.346;2023-04-10T16:18:15;102151.00;;;12.40;28.08
50650;BME280;36621;60.058;30.346;2023-04-10T16:25:47;102137.66;;;12.10;28.72
50650;BME280;36621;60.058;30.346;2023-04-10T16:33:20;102119.69;;;11.85;29.24
50650;BME280;36621;60.058;30.346;2023-04-10T16:40:55;102156.91;;;11.98;28.00
50650;BME280;36621;60.058;30.346;2023-04-10T16:48:27;102151.84;;;11.78;26.75
50650;BME280;36621;60.058;30.346;2023-04-10T16:56:00;102154.31;;;11.62;26.53
50650;BME280;36621;60.058;30.346;2023-04-10T17:03:33;102151.78;;;11.44;26.09
50650;BME280;36621;60.058;30.346;2023-04-10T17:11:06;102128.31;;;11.19;26.03
50650;BME280;36621;60.058;30.346;2023-04-10T17:18:39;102136.44;;;11.14;25.48
50650;BME280;36621;60.058;30.346;2023-04-10T17:26:12;102125.91;;;10.94;26.44
50650;BME280;36621;60.058;30.346;2023-04-10T17:33:45;102122.00;;;10.78;26.53
50650;BME280;36621;60.058;30.346;2023-04-10T17:41:18;102124.88;;;10.59;27.10
50650;BME280;36621;60.058;30.346;2023-04-10T17:48:50;102128.44;;;10.48;28.91
50650;BME280;36621;60.058;30.346;2023-04-10T17:56:23;102126.09;;;10.40;28.13
50650;BME280;36621;60.058;30.346;2023-04-10T18:03:55;102107.41;;;10.25;26.70
50650;BME280;36621;60.058;30.346;2023-04-10T18:11:28;102105.84;;;10.29;26.80
50650;BME280;36621;60.058;30.346;2023-04-10T18:19:00;102114.53;;;10.26;27.55
50650;BME280;36621;60.058;30.346;2023-04-10T18:26:33;102105.63;;;10.07;28.58
50650;BME280;36621;60.058;30.346;2023-04-10T18:34:08;102110.84;;;9.97;28.69
50650;BME280;36621;60.058;30.346;2023-04-10T18:41:40;102111.28;;;9.94;28.55
50650;BME280;36621;60.058;30.346;2023-04-10T18:49:12;102092.72;;;9.72;29.73
50650;BME280;36621;60.058;30.346;2023-04-10T18:56:45;102099.91;;;9.54;32.35
50650;BME280;36621;60.058;30.346;2023-04-10T19:04:18;102102.25;;;9.39;33.55
50650;BME280;36621;60.058;30.346;2023-04-10T19:11:51;102090.34;;;9.21;33.14
50650;BME280;36621;60.058;30.346;2023-04-10T19:19:24;102092.16;;;9.09;35.13
50650;BME280;36621;60.058;30.346;2023-04-10T19:26:56;102071.31;;;8.84;33.30
50650;BME280;36621;60.058;30.346;2023-04-10T19:34:28;102039.69;;;8.65;32.30
50650;BME280;36621;60.058;30.346;2023-04-10T19:42:01;102048.94;;;8.64;34.60
50650;BME280;36621;60.058;30.346;2023-04-10T19:49:34;102052.41;;;8.52;34.35
50650;BME280;36621;60.058;30.346;2023-04-10T19:57:07;102071.00;;;8.56;35.08
50650;BME280;36621;60.058;30.346;2023-04-10T20:04:39;102045.16;;;8.21;36.66
50650;BME280;36621;60.058;30.346;2023-04-10T20:12:12;102056.09;;;8.14;37.71
50650;BME280;36621;60.058;30.346;2023-04-10T20:19:46;102057.72;;;7.97;37.86
50650;BME280;36621;60.058;30.346;2023-04-10T20:27:19;102048.25;;;7.81;38.42
50650;BME280;36621;60.058;30.346;2023-04-10T20:34:51;102032.72;;;7.63;38.66
50650;BME280;36621;60.058;30.346;2023-04-10T20:42:23;102026.94;;;7.53;38.89
50650;BME280;36621;60.058;30.346;2023-04-10T20:49:55;102025.09;;;7.46;38.51
50650;BME280;36621;60.058;30.346;2023-04-10T20:57:28;102031.19;;;7.42;39.15
50650;BME280;36621;60.058;30.346;2023-04-10T21:05:00;102014.56;;;7.25;39.15
50650;BME280;36621;60.058;30.346;2023-04-10T21:12:33;102030.28;;;7.23;39.55
50650;BME280;36621;60.058;30.346;2023-04-10T21:20:06;102013.91;;;6.98;39.18
50650;BME280;36621;60.058;30.346;2023-04-10T21:27:39;101992.09;;;6.72;38.94
50650;BME280;36621;60.058;30.346;2023-04-10T21:35:11;101951.94;;;6.42;40.53
50650;BME280;36621;60.058;30.346;2023-04-10T21:42:43;101963.38;;;6.51;40.75
50650;BME280;36621;60.058;30.346;2023-04-10T21:50:15;102005.53;;;6.54;41.41
50650;BME280;36621;60.058;30.346;2023-04-10T21:57:48;102000.13;;;6.54;42.29
50650;BME280;36621;60.058;30.346;2023-04-10T22:05:20;101972.84;;;6.35;42.79
50650;BME280;36621;60.058;30.346;2023-04-10T22:12:54;101967.03;;;6.25;44.02
50650;BME280;36621;60.058;30.346;2023-04-10T22:20:26;101986.66;;;6.20;44.91
50650;BME280;36621;60.058;30.346;2023-04-10T22:27:59;101976.69;;;6.01;43.95
50650;BME280;36621;60.058;30.346;2023-04-10T22:35:31;101973.31;;;5.92;43.81
50650;BME280;36621;60.058;30.346;2023-04-10T22:43:04;101980.84;;;5.90;43.40
50650;BME280;36621;60.058;30.346;2023-04-10T22:50:36;101948.56;;;5.62;43.82
50650;BME280;36621;60.058;30.346;2023-04-10T22:58:08;101966.28;;;5.64;43.94
50650;BME280;36621;60.058;30.346;2023-04-10T23:05:41;101960.66;;;5.46;45.11
50650;BME280;36621;60.058;30.346;2023-04-10T23:13:14;101956.50;;;5.36;45.49
50650;BME280;36621;60.058;30.346;2023-04-10T23:20:47;101947.13;;;5.19;46.16
50650;BME280;36621;60.058;30.346;2023-04-10T23:28:20;101950.44;;;5.14;46.56
50650;BME280;36621;60.058;30.346;2023-04-10T23:35:52;101932.94;;;5.03;46.29
50650;BME280;36621;60.058;30.346;2023-04-10T23:43:25;101926.66;;;4.96;46.85
50650;BME280;36621;60.058;30.346;2023-04-10T23:51:04;101922.91;;;5.04;46.29
50650;BME280;36621;60.058;30.346;2023-04-10T23:58:37;101885.00;;;4.70;46.35
